sensor_id;sensor_type;location;lat;lon;timestamp;temperature;humidity
47590;DHT22;33316;52.298;9.056;2022-07-04T00:00:24;20.60;60.20
47590;DHT22;33316;52.298;9.056;2022-07-04T00:02:50;20.50;60.40
47590;DHT22;33316;52.298;9.056;2022-07-04T00:05:16;20.40;60.60
47590;DHT22;33316;52.298;9.056;2022-07-04T00:07:45;20.40;60.80
47590;DHT22;33316;52.298;9.056;2022-07-04T00:10:13;20.30;60.90
47590;DHT22;33316;52.298;9.056;2022-07-04T00:12:39;20.30;61.00
47590;DHT22;33316;52.298;9.056;2022-07-04T00:15:06;20.30;61.10
47590;DHT22;33316;52.298;9.056;2022-07-04T00:17:32;20.20;61.20
47590;DHT22;33316;52.298;9.056;2022-07-04T00:19:58;20.20;61.30
47590;DHT22;33316;52.298;9.056;2022-07-04T00:22:24;20.20;61.50
47590;DHT22;33316;52.298;9.056;2022-07-04T00:24:49;20.20;61.50
47590;DHT22;33316;52.298;9.056;2022-07-04T00:27:15;20.10;61.60
47590;DHT22;33316;52.298;9.056;2022-07-04T00:29:41;20.10;61.70
47590;DHT22;33316;52.298;9.056;2022-07-04T00:32:07;20.10;61.80
47590;DHT22;33316;52.298;9.056;2022-07-04T00:34:32;20.00;62.00
47590;DHT22;33316;52.298;9.056;2022-07-04T00:36:58;20.00;62.20
47590;DHT22;33316;52.298;9.056;2022-07-04T00:39:23;19.90;62.30
47590;DHT22;33316;52.298;9.056;2022-07-04T00:41:49;19.90;62.60
47590;DHT22;33316;52.298;9.056;2022-07-04T00:44:15;19.80;62.70
47590;DHT22;33316;52.298;9.056;2022-07-04T00:46:42;19.80;62.80
47590;DHT22;33316;52.298;9.056;2022-07-04T00:49:08;19.70;62.90
47590;DHT22;33316;52.298;9.056;2022-07-04T00:51:35;19.70;63.10
47590;DHT22;33316;52.298;9.056;2022-07-04T00:54:02;19.70;63.10
47590;DHT22;33316;52.298;9.056;2022-07-04T00:56:27;19.70;63.10
47590;DHT22;33316;52.298;9.056;2022-07-04T00:58:53;19.60;63.10
47590;DHT22;33316;52.298;9.056;2022-07-04T01:01:20;19.60;63.10
47590;DHT22;33316;52.298;9.056;2022-07-04T01:03:46;19.60;63.10
47590;DHT22;33316;52.298;9.056;2022-07-04T01:06:13;19.60;63.30
47590;DHT22;33316;52.298;9.056;2022-07-04T01:08:41;19.50;63.50
47590;DHT22;33316;52.298;9.056;2022-07-04T01:11:07;19.40;63.60
47590;DHT22;33316;52.298;9.056;2022-07-04T01:13:33;19.40;63.90
47590;DHT22;33316;52.298;9.056;2022-07-04T01:15:59;19.40;64.10
47590;DHT22;33316;52.298;9.056;2022-07-04T01:18:25;19.30;64.20
47590;DHT22;33316;52.298;9.056;2022-07-04T01:20:51;19.30;64.40
47590;DHT22;33316;52.298;9.056;2022-07-04T01:23:17;19.30;64.30
47590;DHT22;33316;52.298;9.056;2022-07-04T01:25:43;19.30;64.30
47590;DHT22;33316;52.298;9.056;2022-07-04T01:28:09;19.30;64.30
47590;DHT22;33316;52.298;9.056;2022-07-04T01:30:36;19.30;64.30
47590;DHT22;33316;52.298;9.056;2022-07-04T01:33:03;19.30;64.40
47590;DHT22;33316;52.298;9.056;2022-07-04T01:35:28;19.30;64.40
47590;DHT22;33316;52.298;9.056;2022-07-04T01:37:54;19.20;64.50
47590;DHT22;33316;52.298;9.056;2022-07-04T01:40:20;19.20;64.80
47590;DHT22;33316;52.298;9.056;2022-07-04T01:42:45;19.20;64.90
47590;DHT22;33316;52.298;9.056;2022-07-04T01:45:11;19.20;64.90
47590;DHT22;33316;52.298;9.056;2022-07-04T01:47:38;19.20;65.00
47590;DHT22;33316;52.298;9.056;2022-07-04T01:50:05;19.10;65.00
47590;DHT22;33316;52.298;9.056;2022-07-04T01:52:31;19.10;65.00
47590;DHT22;33316;52.298;9.056;2022-07-04T01:54:57;19.10;65.20
47590;DHT22;33316;52.298;9.056;2022-07-04T01:57:23;19.10;65.30
47590;DHT22;33316;52.298;9.056;2022-07-04T01:59:48;19.00;65.40
47590;DHT22;33316;52.298;9.056;2022-07-04T02:02:33;19.00;65.50
47590;DHT22;33316;52.298;9.056;2022-07-04T02:04:58;19.00;65.40
47590;DHT22;33316;52.298;9.056;2022-07-04T02:07:24;19.00;65.40
47590;DHT22;33316;52.298;9.056;2022-07-04T02:09:50;18.90;65.40
47590;DHT22;33316;52.298;9.056;2022-07-04T02:12:15;18.90;65.60
47590;DHT22;33316;52.298;9.056;2022-07-04T02:14:59;18.90;65.70
47590;DHT22;33316;52.298;9.056;2022-07-04T02:17:25;18.90;65.80
47590;DHT22;33316;52.298;9.056;2022-07-04T02:19:51;18.90;66.00
47590;DHT22;33316;52.298;9.056;2022-07-04T02:22:16;18.80;66.10
47590;DHT22;33316;52.298;9.056;2022-07-04T02:24:42;18.80;66.00
47590;DHT22;33316;52.298;9.056;2022-07-04T02:27:08;18.80;66.10
47590;DHT22;33316;52.298;9.056;2022-07-04T02:29:34;18.80;66.30
47590;DHT22;33316;52.298;9.056;2022-07-04T02:32:01;18.70;66.50
47590;DHT22;33316;52.298;9.056;2022-07-04T02:34:27;18.70;66.60
47590;DHT22;33316;52.298;9.056;2022-07-04T02:36:52;18.70;66.60
47590;DHT22;33316;52.298;9.056;2022-07-04T02:39:18;18.70;66.50
47590;DHT22;33316;52.298;9.056;2022-07-04T02:41:44;18.70;66.60
47590;DHT22;33316;52.298;9.056;2022-07-04T02:44:09;18.70;66.90
47590;DHT22;33316;52.298;9.056;2022-07-04T02:46:35;18.60;67.00
47590;DHT22;33316;52.298;9.056;2022-07-04T02:49:02;18.60;67.00
47590;DHT22;33316;52.298;9.056;2022-07-04T02:51:28;18.60;67.20
47590;DHT22;33316;52.298;9.056;2022-07-04T02:53:54;18.60;67.40
47590;DHT22;33316;52.298;9.056;2022-07-04T02:56:20;18.60;67.40
47590;DHT22;33316;52.298;9.056;2022-07-04T02:58:46;18.60;67.60
47590;DHT22;33316;52.298;9.056;2022-07-04T03:01:11;18.60;67.70
47590;DHT22;33316;52.298;9.056;2022-07-04T03:03:40;18.60;67.70
47590;DHT22;33316;52.298;9.056;2022-07-04T03:06:07;18.50;67.70
47590;DHT22;33316;52.298;9.056;2022-07-04T03:08:33;18.50;67.90
47590;DHT22;33316;52.298;9.056;2022-07-04T03:10:59;18.50;68.00
47590;DHT22;33316;52.298;9.056;2022-07-04T03:13:25;18.60;68.00
47590;DHT22;33316;52.298;9.056;2022-07-04T03:15:51;18.50;68.00
47590;DHT22;33316;52.298;9.056;2022-07-04T03:18:17;18.50;68.00
47590;DHT22;33316;52.298;9.056;2022-07-04T03:20:43;18.60;68.10
47590;DHT22;33316;52.298;9.056;2022-07-04T03:23:08;18.60;68.20
47590;DHT22;33316;52.298;9.056;2022-07-04T03:25:35;18.60;68.20
47590;DHT22;33316;52.298;9.056;2022-07-04T03:28:00;18.60;68.20
47590;DHT22;33316;52.298;9.056;2022-07-04T03:30:26;18.60;68.20
47590;DHT22;33316;52.298;9.056;2022-07-04T03:32:51;18.60;68.30
47590;DHT22;33316;52.298;9.056;2022-07-04T03:35:17;18.60;68.30
47590;DHT22;33316;52.298;9.056;2022-07-04T03:37:42;18.60;68.30
47590;DHT22;33316;52.298;9.056;2022-07-04T03:40:09;18.60;68.40
47590;DHT22;33316;52.298;9.056;2022-07-04T03:42:34;18.60;68.40
47590;DHT22;33316;52.298;9.056;2022-07-04T03:45:00;18.60;68.40
47590;DHT22;33316;52.298;9.056;2022-07-04T03:47:25;18.60;68.40
47590;DHT22;33316;52.298;9.056;2022-07-04T03:49:51;18.60;68.40
47590;DHT22;33316;52.298;9.056;2022-07-04T03:52:16;18.60;68.40
47590;DHT22;33316;52.298;9.056;2022-07-04T03:54:42;18.60;68.40
47590;DHT22;33316;52.298;9.056;2022-07-04T03:57:07;18.60;68.40
47590;DHT22;33316;52.298;9.056;2022-07-04T03:59:33;18.70;68.50
47590;DHT22;33316;52.298;9.056;2022-07-04T04:01:58;18.60;68.40
47590;DHT22;33316;52.298;9.056;2022-07-04T04:04:24;18.60;68.40
47590;DHT22;33316;52.298;9.056;2022-07-04T04:07:08;18.60;68.50
47590;DHT22;33316;52.298;9.056;2022-07-04T04:09:34;18.60;68.50
47590;DHT22;33316;52.298;9.056;2022-07-04T04:12:00;18.60;68.60
47590;DHT22;33316;52.298;9.056;2022-07-04T04:14:25;18.60;68.60
47590;DHT22;33316;52.298;9.056;2022-07-04T04:16:53;18.60;68.80
47590;DHT22;33316;52.298;9.056;2022-07-04T04:19:18;18.60;68.90
47590;DHT22;33316;52.298;9.056;2022-07-04T04:21:44;18.60;68.90
47590;DHT22;33316;52.298;9.056;2022-07-04T04:24:10;18.60;69.00
47590;DHT22;33316;52.298;9.056;2022-07-04T04:26:35;18.60;69.00
47590;DHT22;33316;52.298;9.056;2022-07-04T04:29:01;18.60;69.00
47590;DHT22;33316;52.298;9.056;2022-07-04T04:31:27;18.70;69.10
47590;DHT22;33316;52.298;9.056;2022-07-04T04:33:52;18.70;69.00
47590;DHT22;33316;52.298;9.056;2022-07-04T04:36:18;18.80;69.00
47590;DHT22;33316;52.298;9.056;2022-07-04T04:38:44;18.80;68.80
47590;DHT22;33316;52.298;9.056;2022-07-04T04:41:09;18.80;69.70
47590;DHT22;33316;52.298;9.056;2022-07-04T04:43:35;18.80;68.80
47590;DHT22;33316;52.298;9.056;2022-07-04T04:46:00;18.80;68.70
47590;DHT22;33316;52.298;9.056;2022-07-04T04:48:26;18.80;68.60
47590;DHT22;33316;52.298;9.056;2022-07-04T04:50:51;18.90;68.70
47590;DHT22;33316;52.298;9.056;2022-07-04T04:53:17;18.90;68.70
47590;DHT22;33316;52.298;9.056;2022-07-04T04:55:43;18.90;68.70
47590;DHT22;33316;52.298;9.056;2022-07-04T04:58:08;18.90;68.90
47590;DHT22;33316;52.298;9.056;2022-07-04T05:00:34;18.90;69.00
47590;DHT22;33316;52.298;9.056;2022-07-04T05:03:00;18.90;69.10
47590;DHT22;33316;52.298;9.056;2022-07-04T05:05:25;18.90;69.20
47590;DHT22;33316;52.298;9.056;2022-07-04T05:07:51;18.90;69.20
47590;DHT22;33316;52.298;9.056;2022-07-04T05:10:17;19.00;70.00
47590;DHT22;33316;52.298;9.056;2022-07-04T05:12:43;19.00;69.20
47590;DHT22;33316;52.298;9.056;2022-07-04T05:15:09;19.10;69.20
47590;DHT22;33316;52.298;9.056;2022-07-04T05:17:35;19.20;69.30
47590;DHT22;33316;52.298;9.056;2022-07-04T05:20:00;19.20;69.20
47590;DHT22;33316;52.298;9.056;2022-07-04T05:22:26;19.20;69.20
47590;DHT22;33316;52.298;9.056;2022-07-04T05:24:52;19.20;69.20
47590;DHT22;33316;52.298;9.056;2022-07-04T05:27:17;19.30;69.20
47590;DHT22;33316;52.298;9.056;2022-07-04T05:29:43;19.30;69.20
47590;DHT22;33316;52.298;9.056;2022-07-04T05:32:08;19.40;69.30
47590;DHT22;33316;52.298;9.056;2022-07-04T05:34:35;19.70;69.40
47590;DHT22;33316;52.298;9.056;2022-07-04T05:37:02;20.10;69.00
47590;DHT22;33316;52.298;9.056;2022-07-04T05:39:28;20.40;68.30
47590;DHT22;33316;52.298;9.056;2022-07-04T05:41:54;20.70;67.60
47590;DHT22;33316;52.298;9.056;2022-07-04T05:44:19;21.00;66.80
47590;DHT22;33316;52.298;9.056;2022-07-04T05:46:45;21.30;66.10
47590;DHT22;33316;52.298;9.056;2022-07-04T05:49:10;21.50;65.60
47590;DHT22;33316;52.298;9.056;2022-07-04T05:51:36;21.70;65.10
47590;DHT22;33316;52.298;9.056;2022-07-04T05:54:01;21.90;64.60
47590;DHT22;33316;52.298;9.056;2022-07-04T05:56:27;22.00;64.10
47590;DHT22;33316;52.298;9.056;2022-07-04T05:58:53;22.20;63.80
47590;DHT22;33316;52.298;9.056;2022-07-04T06:01:18;22.30;63.00
47590;DHT22;33316;52.298;9.056;2022-07-04T06:03:44;22.50;62.80
47590;DHT22;33316;52.298;9.056;2022-07-04T06:06:10;22.60;62.30
47590;DHT22;33316;52.298;9.056;2022-07-04T06:08:35;22.80;61.80
47590;DHT22;33316;52.298;9.056;2022-07-04T06:11:02;22.90;61.30
47590;DHT22;33316;52.298;9.056;2022-07-04T06:13:28;23.10;60.80
47590;DHT22;33316;52.298;9.056;2022-07-04T06:15:54;23.20;60.20
47590;DHT22;33316;52.298;9.056;2022-07-04T06:18:20;23.30;59.90
47590;DHT22;33316;52.298;9.056;2022-07-04T06:20:45;23.50;59.60
47590;DHT22;33316;52.298;9.056;2022-07-04T06:23:11;23.50;59.10
47590;DHT22;33316;52.298;9.056;2022-07-04T06:25:37;23.60;59.20
47590;DHT22;33316;52.298;9.056;2022-07-04T06:28:02;23.70;58.60
47590;DHT22;33316;52.298;9.056;2022-07-04T06:30:28;23.80;58.30
47590;DHT22;33316;52.298;9.056;2022-07-04T06:32:55;23.90;57.90
47590;DHT22;33316;52.298;9.056;2022-07-04T06:35:26;24.00;57.60
47590;DHT22;33316;52.298;9.056;2022-07-04T06:38:15;24.10;57.30
47590;DHT22;33316;52.298;9.056;2022-07-04T06:40:41;24.10;56.90
47590;DHT22;33316;52.298;9.056;2022-07-04T06:43:07;24.20;56.60
47590;DHT22;33316;52.298;9.056;2022-07-04T06:45:33;24.00;56.20
47590;DHT22;33316;52.298;9.056;2022-07-04T06:48:05;23.90;56.20
47590;DHT22;33316;52.298;9.056;2022-07-04T06:50:32;23.70;56.30
47590;DHT22;33316;52.298;9.056;2022-07-04T06:53:02;23.50;56.50
47590;DHT22;33316;52.298;9.056;2022-07-04T06:55:29;23.30;56.50
47590;DHT22;33316;52.298;9.056;2022-07-04T06:57:55;23.10;56.10
47590;DHT22;33316;52.298;9.056;2022-07-04T07:00:20;23.10;56.60
47590;DHT22;33316;52.298;9.056;2022-07-04T07:02:46;23.10;56.80
47590;DHT22;33316;52.298;9.056;2022-07-04T07:05:11;23.30;56.90
47590;DHT22;33316;52.298;9.056;2022-07-04T07:07:37;23.40;56.70
47590;DHT22;33316;52.298;9.056;2022-07-04T07:10:02;23.60;56.20
47590;DHT22;33316;52.298;9.056;2022-07-04T07:12:29;23.70;55.90
47590;DHT22;33316;52.298;9.056;2022-07-04T07:14:55;23.70;55.40
47590;DHT22;33316;52.298;9.056;2022-07-04T07:17:21;23.80;55.10
47590;DHT22;33316;52.298;9.056;2022-07-04T07:19:47;23.90;55.20
47590;DHT22;33316;52.298;9.056;2022-07-04T07:22:14;23.90;55.00
47590;DHT22;33316;52.298;9.056;2022-07-04T07:24:40;23.90;54.60
47590;DHT22;33316;52.298;9.056;2022-07-04T07:27:07;24.00;54.10
47590;DHT22;33316;52.298;9.056;2022-07-04T07:29:33;24.00;53.90
47590;DHT22;33316;52.298;9.056;2022-07-04T07:31:59;24.10;53.40
47590;DHT22;33316;52.298;9.056;2022-07-04T07:34:24;24.20;52.90
47590;DHT22;33316;52.298;9.056;2022-07-04T07:36:50;24.30;52.90
47590;DHT22;33316;52.298;9.056;2022-07-04T07:39:16;24.30;52.80
47590;DHT22;33316;52.298;9.056;2022-07-04T07:41:42;24.40;53.00
47590;DHT22;33316;52.298;9.056;2022-07-04T07:44:08;24.50;52.90
47590;DHT22;33316;52.298;9.056;2022-07-04T07:46:34;24.50;52.20
47590;DHT22;33316;52.298;9.056;2022-07-04T07:48:59;24.60;51.90
47590;DHT22;33316;52.298;9.056;2022-07-04T07:51:25;24.70;52.00
47590;DHT22;33316;52.298;9.056;2022-07-04T07:53:51;24.70;51.80
47590;DHT22;33316;52.298;9.056;2022-07-04T07:56:16;24.80;51.20
47590;DHT22;33316;52.298;9.056;2022-07-04T07:58:42;24.80;51.10
47590;DHT22;33316;52.298;9.056;2022-07-04T08:01:07;24.90;51.90
47590;DHT22;33316;52.298;9.056;2022-07-04T08:03:33;25.00;50.90
47590;DHT22;33316;52.298;9.056;2022-07-04T08:06:17;25.00;50.70
47590;DHT22;33316;52.298;9.056;2022-07-04T08:08:43;25.10;50.20
47590;DHT22;33316;52.298;9.056;2022-07-04T08:11:10;25.10;49.80
47590;DHT22;33316;52.298;9.056;2022-07-04T08:13:36;25.10;49.80
47590;DHT22;33316;52.298;9.056;2022-07-04T08:16:02;25.00;49.80
47590;DHT22;33316;52.298;9.056;2022-07-04T08:18:28;25.10;49.60
47590;DHT22;33316;52.298;9.056;2022-07-04T08:20:54;25.10;49.40
47590;DHT22;33316;52.298;9.056;2022-07-04T08:23:20;25.10;49.20
47590;DHT22;33316;52.298;9.056;2022-07-04T08:25:46;25.10;48.70
47590;DHT22;33316;52.298;9.056;2022-07-04T08:28:11;25.10;48.70
47590;DHT22;33316;52.298;9.056;2022-07-04T08:30:37;25.20;48.50
47590;DHT22;33316;52.298;9.056;2022-07-04T08:33:02;25.20;48.40
47590;DHT22;33316;52.298;9.056;2022-07-04T08:35:28;25.20;48.00
47590;DHT22;33316;52.298;9.056;2022-07-04T08:37:54;25.20;47.60
47590;DHT22;33316;52.298;9.056;2022-07-04T08:40:25;25.10;47.30
47590;DHT22;33316;52.298;9.056;2022-07-04T08:42:51;25.10;47.40
47590;DHT22;33316;52.298;9.056;2022-07-04T08:45:18;25.20;47.50
47590;DHT22;33316;52.298;9.056;2022-07-04T08:47:50;25.20;47.40
47590;DHT22;33316;52.298;9.056;2022-07-04T08:50:29;25.30;47.30
47590;DHT22;33316;52.298;9.056;2022-07-04T08:53:02;25.30;47.20
47590;DHT22;33316;52.298;9.056;2022-07-04T08:55:29;25.30;47.20
47590;DHT22;33316;52.298;9.056;2022-07-04T08:58:14;25.30;47.10
47590;DHT22;33316;52.298;9.056;2022-07-04T09:01:00;25.30;46.90
47590;DHT22;33316;52.298;9.056;2022-07-04T09:03:27;25.30;46.70
47590;DHT22;33316;52.298;9.056;2022-07-04T09:05:53;25.30;46.90
47590;DHT22;33316;52.298;9.056;2022-07-04T09:08:19;25.30;46.90
47590;DHT22;33316;52.298;9.056;2022-07-04T09:10:45;25.30;46.70
47590;DHT22;33316;52.298;9.056;2022-07-04T09:13:12;25.30;46.60
47590;DHT22;33316;52.298;9.056;2022-07-04T09:15:41;25.30;46.30
47590;DHT22;33316;52.298;9.056;2022-07-04T09:20:47;25.30;45.70
47590;DHT22;33316;52.298;9.056;2022-07-04T09:23:18;25.30;46.20
47590;DHT22;33316;52.298;9.056;2022-07-04T09:25:44;25.30;46.50
47590;DHT22;33316;52.298;9.056;2022-07-04T09:28:09;25.30;46.10
47590;DHT22;33316;52.298;9.056;2022-07-04T09:30:46;25.30;46.40
47590;DHT22;33316;52.298;9.056;2022-07-04T09:33:14;25.30;46.30
47590;DHT22;33316;52.298;9.056;2022-07-04T09:35:42;25.40;46.30
47590;DHT22;33316;52.298;9.056;2022-07-04T09:38:11;25.40;46.10
47590;DHT22;33316;52.298;9.056;2022-07-04T09:40:38;25.50;46.00
47590;DHT22;33316;52.298;9.056;2022-07-04T09:43:23;25.50;46.20
47590;DHT22;33316;52.298;9.056;2022-07-04T09:45:59;25.50;45.90
47590;DHT22;33316;52.298;9.056;2022-07-04T09:48:26;25.60;45.90
47590;DHT22;33316;52.298;9.056;2022-07-04T09:50:52;25.50;45.70
47590;DHT22;33316;52.298;9.056;2022-07-04T09:53:18;25.60;45.70
47590;DHT22;33316;52.298;9.056;2022-07-04T09:55:43;25.60;45.60
47590;DHT22;33316;52.298;9.056;2022-07-04T09:58:13;25.60;45.50
47590;DHT22;33316;52.298;9.056;2022-07-04T10:00:40;25.60;45.50
47590;DHT22;33316;52.298;9.056;2022-07-04T10:03:26;25.60;45.20
47590;DHT22;33316;52.298;9.056;2022-07-04T10:06:07;25.60;45.20
47590;DHT22;33316;52.298;9.056;2022-07-04T10:08:34;25.60;44.80
47590;DHT22;33316;52.298;9.056;2022-07-04T10:11:01;25.60;44.90
47590;DHT22;33316;52.298;9.056;2022-07-04T10:13:27;25.60;44.80
47590;DHT22;33316;52.298;9.056;2022-07-04T10:15:53;25.60;44.90
47590;DHT22;33316;52.298;9.056;2022-07-04T10:18:20;25.70;45.10
47590;DHT22;33316;52.298;9.056;2022-07-04T10:20:46;25.70;44.90
47590;DHT22;33316;52.298;9.056;2022-07-04T10:23:14;25.70;44.50
47590;DHT22;33316;52.298;9.056;2022-07-04T10:25:40;25.70;44.50
47590;DHT22;33316;52.298;9.056;2022-07-04T10:28:07;25.70;44.40
47590;DHT22;33316;52.298;9.056;2022-07-04T10:30:35;25.80;44.50
47590;DHT22;33316;52.298;9.056;2022-07-04T10:33:04;25.80;44.70
47590;DHT22;33316;52.298;9.056;2022-07-04T10:38:18;25.80;44.50
47590;DHT22;33316;52.298;9.056;2022-07-04T10:48:27;25.90;44.20
47590;DHT22;33316;52.298;9.056;2022-07-04T10:51:00;25.80;44.30
47590;DHT22;33316;52.298;9.056;2022-07-04T10:53:27;25.80;44.50
47590;DHT22;33316;52.298;9.056;2022-07-04T10:55:52;25.90;44.60
47590;DHT22;33316;52.298;9.056;2022-07-04T10:58:40;25.90;44.50
47590;DHT22;33316;52.298;9.056;2022-07-04T11:01:16;25.90;44.00
47590;DHT22;33316;52.298;9.056;2022-07-04T11:03:49;25.90;44.10
47590;DHT22;33316;52.298;9.056;2022-07-04T11:11:58;26.10;44.10
47590;DHT22;33316;52.298;9.056;2022-07-04T11:14:43;26.10;43.90
47590;DHT22;33316;52.298;9.056;2022-07-04T11:17:27;26.10;44.00
47590;DHT22;33316;52.298;9.056;2022-07-04T11:19:59;26.10;44.10
47590;DHT22;33316;52.298;9.056;2022-07-04T11:22:26;26.10;44.20
47590;DHT22;33316;52.298;9.056;2022-07-04T11:24:52;26.10;44.30
47590;DHT22;33316;52.298;9.056;2022-07-04T11:27:21;26.20;44.30
47590;DHT22;33316;52.298;9.056;2022-07-04T11:29:54;26.20;44.60
47590;DHT22;33316;52.298;9.056;2022-07-04T11:32:20;26.20;43.80
47590;DHT22;33316;52.298;9.056;2022-07-04T11:34:47;26.20;43.80
47590;DHT22;33316;52.298;9.056;2022-07-04T11:37:14;26.20;43.90
47590;DHT22;33316;52.298;9.056;2022-07-04T11:39:39;26.20;43.80
47590;DHT22;33316;52.298;9.056;2022-07-04T11:42:05;26.20;43.80
47590;DHT22;33316;52.298;9.056;2022-07-04T11:44:49;26.20;43.80
47590;DHT22;33316;52.298;9.056;2022-07-04T11:47:21;26.20;43.70
47590;DHT22;33316;52.298;9.056;2022-07-04T11:49:48;26.10;43.60
47590;DHT22;33316;52.298;9.056;2022-07-04T11:52:16;26.10;43.70
47590;DHT22;33316;52.298;9.056;2022-07-04T11:54:43;26.10;43.70
47590;DHT22;33316;52.298;9.056;2022-07-04T11:57:27;26.10;43.90
47590;DHT22;33316;52.298;9.056;2022-07-04T12:02:22;26.00;43.70
47590;DHT22;33316;52.298;9.056;2022-07-04T12:04:48;26.00;43.80
47590;DHT22;33316;52.298;9.056;2022-07-04T12:07:15;26.10;43.80
47590;DHT22;33316;52.298;9.056;2022-07-04T12:09:43;26.00;43.70
47590;DHT22;33316;52.298;9.056;2022-07-04T12:12:09;26.00;43.80
47590;DHT22;33316;52.298;9.056;2022-07-04T12:14:35;26.00;43.80
47590;DHT22;33316;52.298;9.056;2022-07-04T12:19:36;26.00;43.70
47590;DHT22;33316;52.298;9.056;2022-07-04T12:22:03;26.00;43.90
47590;DHT22;33316;52.298;9.056;2022-07-04T12:24:38;25.90;43.80
47590;DHT22;33316;52.298;9.056;2022-07-04T12:27:04;26.00;44.00
47590;DHT22;33316;52.298;9.056;2022-07-04T12:29:29;25.90;43.90
47590;DHT22;33316;52.298;9.056;2022-07-04T12:31:55;25.90;43.60
47590;DHT22;33316;52.298;9.056;2022-07-04T12:34:20;25.90;43.40
47590;DHT22;33316;52.298;9.056;2022-07-04T12:36:54;25.90;43.60
47590;DHT22;33316;52.298;9.056;2022-07-04T12:39:32;25.90;43.70
47590;DHT22;33316;52.298;9.056;2022-07-04T12:44:34;26.00;44.50
47590;DHT22;33316;52.298;9.056;2022-07-04T12:47:00;26.00;43.90
47590;DHT22;33316;52.298;9.056;2022-07-04T12:49:26;26.00;43.70
47590;DHT22;33316;52.298;9.056;2022-07-04T12:51:52;25.90;43.90
47590;DHT22;33316;52.298;9.056;2022-07-04T12:54:17;25.90;44.00
47590;DHT22;33316;52.298;9.056;2022-07-04T12:56:45;25.90;44.10
47590;DHT22;33316;52.298;9.056;2022-07-04T12:59:16;25.90;44.30
47590;DHT22;33316;52.298;9.056;2022-07-04T13:01:44;25.90;44.10
47590;DHT22;33316;52.298;9.056;2022-07-04T13:04:10;26.00;44.10
47590;DHT22;33316;52.298;9.056;2022-07-04T13:06:37;26.00;44.00
47590;DHT22;33316;52.298;9.056;2022-07-04T13:09:05;26.10;43.20
47590;DHT22;33316;52.298;9.056;2022-07-04T13:11:32;26.10;42.50
47590;DHT22;33316;52.298;9.056;2022-07-04T13:14:17;26.10;42.10
47590;DHT22;33316;52.298;9.056;2022-07-04T13:16:43;26.10;41.80
47590;DHT22;33316;52.298;9.056;2022-07-04T13:19:08;26.10;42.00
47590;DHT22;33316;52.298;9.056;2022-07-04T13:21:35;26.20;42.10
47590;DHT22;33316;52.298;9.056;2022-07-04T13:24:01;26.10;41.80
47590;DHT22;33316;52.298;9.056;2022-07-04T13:26:27;26.10;41.90
47590;DHT22;33316;52.298;9.056;2022-07-04T13:28:55;26.10;41.90
47590;DHT22;33316;52.298;9.056;2022-07-04T13:31:21;26.20;42.10
47590;DHT22;33316;52.298;9.056;2022-07-04T13:33:46;26.20;42.30
47590;DHT22;33316;52.298;9.056;2022-07-04T13:36:12;26.20;42.70
47590;DHT22;33316;52.298;9.056;2022-07-04T13:38:38;26.30;42.30
47590;DHT22;33316;52.298;9.056;2022-07-04T13:41:04;26.30;41.90
47590;DHT22;33316;52.298;9.056;2022-07-04T13:43:30;26.30;41.70
47590;DHT22;33316;52.298;9.056;2022-07-04T13:45:56;26.20;41.30
47590;DHT22;33316;52.298;9.056;2022-07-04T13:48:22;26.20;41.40
47590;DHT22;33316;52.298;9.056;2022-07-04T13:50:47;26.30;41.90
47590;DHT22;33316;52.298;9.056;2022-07-04T13:53:13;26.30;41.90
47590;DHT22;33316;52.298;9.056;2022-07-04T13:55:39;26.40;41.90
47590;DHT22;33316;52.298;9.056;2022-07-04T13:58:06;26.40;41.70
47590;DHT22;33316;52.298;9.056;2022-07-04T14:00:34;26.40;41.20
47590;DHT22;33316;52.298;9.056;2022-07-04T14:02:59;26.50;41.30
47590;DHT22;33316;52.298;9.056;2022-07-04T14:05:25;26.50;41.30
47590;DHT22;33316;52.298;9.056;2022-07-04T14:07:51;26.50;40.80
47590;DHT22;33316;52.298;9.056;2022-07-04T14:10:17;26.50;40.90
47590;DHT22;33316;52.298;9.056;2022-07-04T14:12:43;26.50;40.70
47590;DHT22;33316;52.298;9.056;2022-07-04T14:15:09;26.50;40.70
47590;DHT22;33316;52.298;9.056;2022-07-04T14:17:35;26.50;40.80
47590;DHT22;33316;52.298;9.056;2022-07-04T14:20:08;26.60;41.20
47590;DHT22;33316;52.298;9.056;2022-07-04T14:22:35;26.60;40.60
47590;DHT22;33316;52.298;9.056;2022-07-04T14:25:01;26.60;40.90
47590;DHT22;33316;52.298;9.056;2022-07-04T14:27:26;26.70;40.90
47590;DHT22;33316;52.298;9.056;2022-07-04T14:29:52;26.70;41.00
47590;DHT22;33316;52.298;9.056;2022-07-04T14:32:18;26.70;41.10
47590;DHT22;33316;52.298;9.056;2022-07-04T14:34:43;26.70;41.00
47590;DHT22;33316;52.298;9.056;2022-07-04T14:37:09;26.70;41.10
47590;DHT22;33316;52.298;9.056;2022-07-04T14:39:34;26.70;40.80
47590;DHT22;33316;52.298;9.056;2022-07-04T14:42:00;26.70;40.80
47590;DHT22;33316;52.298;9.056;2022-07-04T14:44:25;26.70;40.80
47590;DHT22;33316;52.298;9.056;2022-07-04T14:46:51;26.70;40.90
47590;DHT22;33316;52.298;9.056;2022-07-04T14:49:17;26.70;40.80
47590;DHT22;33316;52.298;9.056;2022-07-04T14:51:42;26.70;40.50
47590;DHT22;33316;52.298;9.056;2022-07-04T14:54:08;26.70;40.40
47590;DHT22;33316;52.298;9.056;2022-07-04T14:56:35;26.70;40.50
47590;DHT22;33316;52.298;9.056;2022-07-04T14:59:01;26.70;40.60
47590;DHT22;33316;52.298;9.056;2022-07-04T15:01:27;26.70;40.50
47590;DHT22;33316;52.298;9.056;2022-07-04T15:03:53;26.70;40.80
47590;DHT22;33316;52.298;9.056;2022-07-04T15:06:19;26.70;40.40
47590;DHT22;33316;52.298;9.056;2022-07-04T15:08:44;26.70;40.50
47590;DHT22;33316;52.298;9.056;2022-07-04T15:11:10;26.70;41.30
47590;DHT22;33316;52.298;9.056;2022-07-04T15:13:35;26.70;40.50
47590;DHT22;33316;52.298;9.056;2022-07-04T15:16:01;26.60;40.00
47590;DHT22;33316;52.298;9.056;2022-07-04T15:18:27;26.60;40.20
47590;DHT22;33316;52.298;9.056;2022-07-04T15:20:52;26.60;40.40
47590;DHT22;33316;52.298;9.056;2022-07-04T15:23:36;26.60;40.40
47590;DHT22;33316;52.298;9.056;2022-07-04T15:26:21;26.50;40.40
47590;DHT22;33316;52.298;9.056;2022-07-04T15:28:46;26.50;40.70
47590;DHT22;33316;52.298;9.056;2022-07-04T15:31:12;26.50;40.40
47590;DHT22;33316;52.298;9.056;2022-07-04T15:33:38;26.50;40.50
47590;DHT22;33316;52.298;9.056;2022-07-04T15:36:04;26.50;40.60
47590;DHT22;33316;52.298;9.056;2022-07-04T15:38:30;26.50;40.70
47590;DHT22;33316;52.298;9.056;2022-07-04T15:40:55;26.50;40.90
47590;DHT22;33316;52.298;9.056;2022-07-04T15:43:21;26.40;40.80
47590;DHT22;33316;52.298;9.056;2022-07-04T15:45:47;26.40;41.00
47590;DHT22;33316;52.298;9.056;2022-07-04T15:48:13;26.40;41.10
47590;DHT22;33316;52.298;9.056;2022-07-04T15:50:39;26.40;41.00
47590;DHT22;33316;52.298;9.056;2022-07-04T15:53:05;26.40;41.00
47590;DHT22;33316;52.298;9.056;2022-07-04T15:55:30;26.40;41.00